createdAt,value
2023-04-08T00:01:31.277Z,17.43
2023-04-08T00:04:20.890Z,17.00
2023-04-08T00:07:08.478Z,17.35
2023-04-08T00:09:56.833Z,20.38
2023-04-08T00:12:45.076Z,18.85
2023-04-08T00:15:33.930Z,18.90
2023-04-08T00:18:21.464Z,20.35
2023-04-08T00:21:09.094Z,19.50
2023-04-08T00:23:56.517Z,16.77
2023-04-08T00:26:43.739Z,19.25
2023-04-08T00:29:30.961Z,19.15
2023-04-08T00:32:20.435Z,19.30
2023-04-08T00:35:08.396Z,18.10
2023-04-08T00:37:55.809Z,20.70
2023-04-08T00:40:43.026Z,20.08
2023-04-08T00:43:29.987Z,20.30
2023-04-08T00:46:17.064Z,16.63
2023-04-08T00:49:06.098Z,22.13
2023-04-08T00:51:53.447Z,21.60
2023-04-08T00:54:40.798Z,22.30
2023-04-08T00:57:28.604Z,17.55
2023-04-08T01:00:17.056Z,23.52
2023-04-08T01:03:16.070Z,19.30
2023-04-08T01:06:11.990Z,17.05
2023-04-08T01:09:01.557Z,18.65
2023-04-08T01:11:51.405Z,22.00
2023-04-08T01:14:44.106Z,24.42
2023-04-08T01:17:32.581Z,21.10
2023-04-08T01:20:21.418Z,23.98
2023-04-08T01:23:19.379Z,20.08
2023-04-08T01:26:07.753Z,18.50
2023-04-08T01:28:58.775Z,22.92
2023-04-08T01:31:46.981Z,24.02
2023-04-08T01:34:36.865Z,18.38
2023-04-08T01:37:24.913Z,20.50
2023-04-08T01:40:15.960Z,17.80
2023-04-08T01:43:05.321Z,23.10
2023-04-08T01:45:58.596Z,20.30
2023-04-08T01:48:47.233Z,19.43
2023-04-08T01:51:36.318Z,21.40
2023-04-08T01:54:25.141Z,18.75
2023-04-08T01:57:15.846Z,19.02
2023-04-08T02:00:08.800Z,21.10
2023-04-08T02:03:09.608Z,23.95
2023-04-08T02:05:56.971Z,21.23
2023-04-08T02:08:44.132Z,19.25
2023-04-08T02:11:31.817Z,24.67
2023-04-08T02:14:18.953Z,21.55
2023-04-08T02:17:12.688Z,21.60
2023-04-08T02:20:06.489Z,20.73
2023-04-08T02:23:02.449Z,22.85
2023-04-08T02:25:51.019Z,23.17
2023-04-08T02:28:38.799Z,23.27
2023-04-08T02:31:27.482Z,21.53
2023-04-08T02:34:17.071Z,22.65
2023-04-08T02:37:04.817Z,23.40
2023-04-08T02:39:52.436Z,25.92
2023-04-08T02:42:39.769Z,24.17
2023-04-08T02:45:28.720Z,23.63
2023-04-08T02:48:15.517Z,25.52
2023-04-08T02:51:04.537Z,24.17
2023-04-08T02:53:51.599Z,26.80
2023-04-08T02:56:38.597Z,24.45
2023-04-08T02:59:26.334Z,22.20
2023-04-08T03:02:13.636Z,23.45
2023-04-08T03:05:01.292Z,26.80
2023-04-08T03:07:50.558Z,28.70
2023-04-08T03:10:38.291Z,24.73
2023-04-08T03:13:26.430Z,21.45
2023-04-08T03:16:14.369Z,23.25
2023-04-08T03:19:01.896Z,25.17
2023-04-08T03:21:49.729Z,23.25
2023-04-08T03:24:38.771Z,27.48
2023-04-08T03:27:26.641Z,28.13
2023-04-08T03:30:14.587Z,25.58
2023-04-08T03:33:04.739Z,25.38
2023-04-08T03:35:53.166Z,24.92
2023-04-08T03:38:40.646Z,33.08
2023-04-08T03:41:29.705Z,27.00
2023-04-08T03:44:17.256Z,27.80
2023-04-08T03:47:05.284Z,26.83
2023-04-08T03:49:54.673Z,24.77
2023-04-08T03:52:42.792Z,27.48
2023-04-08T03:55:30.423Z,26.67
2023-04-08T03:58:19.592Z,26.92
2023-04-08T04:01:06.910Z,28.20
2023-04-08T04:03:55.104Z,27.67
2023-04-08T04:06:43.098Z,34.35
2023-04-08T04:09:31.341Z,29.92
2023-04-08T04:12:19.380Z,22.63
2023-04-08T04:15:09.574Z,25.73
2023-04-08T04:17:56.748Z,28.67
2023-04-08T04:20:44.762Z,28.75
2023-04-08T04:23:31.882Z,28.08
2023-04-08T04:26:19.909Z,25.05
2023-04-08T04:29:06.804Z,25.40
2023-04-08T04:31:55.871Z,27.63
2023-04-08T04:34:44.779Z,29.40
2023-04-08T04:37:32.054Z,29.52
2023-04-08T04:40:19.178Z,30.63
2023-04-08T04:43:06.843Z,26.40
2023-04-08T04:45:54.669Z,27.55
2023-04-08T04:48:43.915Z,28.77
2023-04-08T04:51:33.385Z,28.67
2023-04-08T04:54:21.036Z,30.02
2023-04-08T04:57:08.819Z,30.75
2023-04-08T04:59:56.691Z,29.47
2023-04-08T05:02:44.730Z,30.25
2023-04-08T05:05:34.108Z,29.73
2023-04-08T05:08:22.562Z,28.85
2023-04-08T05:11:11.231Z,35.22
2023-04-08T05:13:58.752Z,36.30
2023-04-08T05:16:46.275Z,30.40
2023-04-08T05:19:33.496Z,29.67
2023-04-08T05:22:22.361Z,30.38
2023-04-08T05:25:10.934Z,33.45
2023-04-08T05:27:58.754Z,35.57
2023-04-08T05:30:50.683Z,38.85
2023-04-08T05:33:37.820Z,36.40
2023-04-08T05:36:25.241Z,34.30
2023-04-08T05:39:13.781Z,31.17
2023-04-08T05:42:01.038Z,39.30
2023-04-08T05:44:48.029Z,34.00
2023-04-08T05:47:36.294Z,35.97
2023-04-08T05:50:23.949Z,33.22
2023-04-08T05:53:11.528Z,36.95
2023-04-08T05:55:59.972Z,38.47
2023-04-08T05:58:47.001Z,37.00
2023-04-08T06:01:34.156Z,36.33
2023-04-08T06:04:22.100Z,38.38
2023-04-08T06:07:10.092Z,41.47
2023-04-08T06:09:57.987Z,44.58
2023-04-08T06:12:47.186Z,45.75
2023-04-08T06:15:34.630Z,39.45
2023-04-08T06:18:22.411Z,41.28
2023-04-08T06:21:11.740Z,38.60
2023-04-08T06:23:59.049Z,37.83
2023-04-08T06:26:45.890Z,42.37
2023-04-08T06:29:34.823Z,37.47
2023-04-08T06:32:22.995Z,44.78
2023-04-08T06:35:11.278Z,39.65
2023-04-08T06:37:58.328Z,40.75
2023-04-08T06:40:46.104Z,40.50
2023-04-08T06:43:34.514Z,43.20
2023-04-08T06:46:23.598Z,40.83
2023-04-08T06:49:10.804Z,44.83
2023-04-08T06:51:58.163Z,43.10
2023-04-08T06:54:46.580Z,45.78
2023-04-08T06:57:33.900Z,45.53
2023-04-08T07:00:21.452Z,50.85
2023-04-08T07:03:11.346Z,47.10
2023-04-08T07:05:58.453Z,46.58
2023-04-08T07:08:46.481Z,44.53
2023-04-08T07:11:34.105Z,46.73
2023-04-08T07:14:21.329Z,47.10
2023-04-08T07:17:09.406Z,45.63
2023-04-08T07:19:57.835Z,46.13
2023-04-08T07:22:45.663Z,45.35
2023-04-08T07:25:34.210Z,46.60
2023-04-08T07:28:21.653Z,42.40
2023-04-08T07:31:13.868Z,36.17
2023-04-08T07:34:01.198Z,43.22
2023-04-08T07:36:50.267Z,38.87
2023-04-08T07:39:37.177Z,39.08
2023-04-08T07:42:24.822Z,34.78
2023-04-08T07:45:13.054Z,34.83
2023-04-08T07:48:00.614Z,35.28
2023-04-08T07:51:09.455Z,38.53
2023-04-08T07:53:57.131Z,35.72
2023-04-08T07:56:45.083Z,37.10
2023-04-08T07:59:33.540Z,34.80
2023-04-08T08:02:20.921Z,33.47
2023-04-08T08:05:09.196Z,29.30
2023-04-08T08:07:57.131Z,32.03
2023-04-08T08:10:45.609Z,32.33
2023-04-08T08:13:34.104Z,27.75
2023-04-08T08:16:21.894Z,23.42
2023-04-08T08:19:10.149Z,23.40
2023-04-08T08:21:58.063Z,25.08
2023-04-08T08:24:45.390Z,25.63
2023-04-08T08:27:35.014Z,22.10
2023-04-08T08:30:22.805Z,21.38
2023-04-08T08:33:10.694Z,24.80
2023-04-08T08:35:58.611Z,22.75
2023-04-08T08:38:46.624Z,24.58
2023-04-08T08:41:37.937Z,27.67
2023-04-08T08:44:27.236Z,24.13
2023-04-08T08:47:15.175Z,18.67
2023-04-08T08:50:03.835Z,12.50
2023-04-08T08:52:51.648Z,14.20
2023-04-08T08:56:05.658Z,18.02
2023-04-08T08:58:47.667Z,17.58
2023-04-08T09:01:39.333Z,15.23
2023-04-08T09:04:27.159Z,16.85
2023-04-08T09:07:14.783Z,18.05
2023-04-08T09:10:02.710Z,17.40
2023-04-08T09:12:57.720Z,14.95
2023-04-08T09:16:03.632Z,18.17
2023-04-08T09:18:53.067Z,18.02
2023-04-08T09:21:41.536Z,16.85
2023-04-08T09:24:30.619Z,17.33
2023-04-08T09:27:18.290Z,17.40
2023-04-08T09:30:15.552Z,18.83
2023-04-08T09:33:07.330Z,17.25
2023-04-08T09:35:57.460Z,17.23
2023-04-08T09:38:46.964Z,16.45
2023-04-08T09:41:36.447Z,17.60
2023-04-08T09:44:27.794Z,16.63
2023-04-08T09:47:22.130Z,14.73
2023-04-08T09:50:11.106Z,10.07
2023-04-08T09:53:03.552Z,10.47
2023-04-08T09:55:54.188Z,11.38
2023-04-08T09:58:46.356Z,11.90
2023-04-08T10:01:40.482Z,11.17
2023-04-08T10:04:30.142Z,11.63
2023-04-08T10:07:19.318Z,14.23
2023-04-08T10:10:11.170Z,12.65
2023-04-08T10:12:58.989Z,12.80
2023-04-08T10:15:47.842Z,12.48
2023-04-08T10:18:36.501Z,11.20
2023-04-08T10:21:38.467Z,11.10
2023-04-08T10:24:26.095Z,8.43
2023-04-08T10:27:41.704Z,11.27
2023-04-08T10:30:44.160Z,9.65
2023-04-08T10:33:37.835Z,10.82
2023-04-08T10:36:28.149Z,10.00
2023-04-08T10:39:16.785Z,11.27
2023-04-08T10:42:04.787Z,12.63
2023-04-08T10:44:54.013Z,12.73
2023-04-08T10:47:41.548Z,13.93
2023-04-08T10:50:29.461Z,14.00
2023-04-08T10:53:17.933Z,13.63
2023-04-08T10:56:07.340Z,15.40
2023-04-08T10:58:56.866Z,10.50
2023-04-08T11:01:47.352Z,9.15
2023-04-08T11:04:35.485Z,9.13
2023-04-08T11:07:23.138Z,8.88
2023-04-08T11:10:11.089Z,9.75
2023-04-08T11:12:59.523Z,10.20
2023-04-08T11:15:47.559Z,12.25
2023-04-08T11:18:38.884Z,12.73
2023-04-08T11:21:30.423Z,12.30
2023-04-08T11:24:18.808Z,13.48
2023-04-08T11:27:07.528Z,13.85
2023-04-08T11:29:57.805Z,13.27
2023-04-08T11:32:46.588Z,12.82
2023-04-08T11:35:35.961Z,11.65
2023-04-08T11:38:24.667Z,13.00
2023-04-08T11:41:12.632Z,13.75
2023-04-08T11:43:59.916Z,13.23
2023-04-08T11:46:55.546Z,13.48
2023-04-08T11:49:46.598Z,13.77
2023-04-08T11:52:49.800Z,14.18
2023-04-08T11:55:37.089Z,12.07
2023-04-08T11:58:25.015Z,14.30
2023-04-08T12:01:12.468Z,14.13
2023-04-08T12:04:01.826Z,13.88
2023-04-08T12:06:49.985Z,14.23
2023-04-08T12:09:39.077Z,13.93
2023-04-08T12:12:26.702Z,14.95
2023-04-08T12:15:14.213Z,15.40
2023-04-08T12:18:01.913Z,15.98
2023-04-08T12:20:49.401Z,16.05
2023-04-08T12:23:37.103Z,18.37
2023-04-08T12:26:25.763Z,19.48
2023-04-08T12:29:13.393Z,19.45
2023-04-08T12:32:00.928Z,20.52
2023-04-08T12:34:48.965Z,21.52
2023-04-08T12:37:36.964Z,20.95
2023-04-08T12:40:24.601Z,23.17
2023-04-08T12:43:14.022Z,23.45
2023-04-08T12:46:03.293Z,23.75
2023-04-08T12:48:59.920Z,23.23
2023-04-08T12:51:51.476Z,23.70
2023-04-08T12:54:39.308Z,24.05
2023-04-08T12:57:27.427Z,24.30
2023-04-08T13:00:17.223Z,24.80
2023-04-08T13:03:06.267Z,23.85
2023-04-08T13:05:54.119Z,24.40
2023-04-08T13:08:42.970Z,23.53
2023-04-08T13:11:30.142Z,24.83
2023-04-08T13:14:18.340Z,22.73
2023-04-08T13:17:07.397Z,23.00
2023-04-08T13:19:55.455Z,25.55
2023-04-08T13:22:43.180Z,25.83
2023-04-08T13:25:30.421Z,25.53
2023-04-08T13:28:18.123Z,25.55
2023-04-08T13:31:06.277Z,25.30
2023-04-08T13:33:58.019Z,25.08
2023-04-08T13:36:46.044Z,24.63
2023-04-08T13:39:33.264Z,24.67
2023-04-08T13:42:21.510Z,24.45
2023-04-08T13:45:09.862Z,23.42
2023-04-08T13:47:58.148Z,23.47
2023-04-08T13:50:46.857Z,22.55
2023-04-08T13:53:34.180Z,22.40
2023-04-08T13:56:22.277Z,21.45
2023-04-08T13:59:10.364Z,22.90
2023-04-08T14:01:57.943Z,21.42
2023-04-08T14:04:46.115Z,20.33
2023-04-08T14:07:35.000Z,21.15
2023-04-08T14:10:22.422Z,20.88
2023-04-08T14:13:09.955Z,21.00
2023-04-08T14:15:58.577Z,21.35
2023-04-08T14:18:46.752Z,20.40
2023-04-08T14:21:35.323Z,20.45
2023-04-08T14:24:24.398Z,19.83
2023-04-08T14:27:12.516Z,19.98
2023-04-08T14:30:00.559Z,20.53
2023-04-08T14:32:48.730Z,19.98
2023-04-08T14:35:36.807Z,19.67
2023-04-08T14:38:24.580Z,18.73
2023-04-08T14:41:13.782Z,18.40
2023-04-08T14:44:01.334Z,18.98
2023-04-08T14:46:48.932Z,18.98
2023-04-08T14:49:36.533Z,19.33
2023-04-08T14:52:24.988Z,19.17
2023-04-08T14:55:13.129Z,18.67
2023-04-08T14:58:01.910Z,19.70
2023-04-08T15:00:48.827Z,19.27
2023-04-08T15:03:36.331Z,19.07
2023-04-08T15:06:23.708Z,19.63
2023-04-08T15:09:11.200Z,17.95
2023-04-08T15:11:58.610Z,18.00
2023-04-08T15:14:47.784Z,17.43
2023-04-08T15:17:35.780Z,16.10
2023-04-08T15:20:22.745Z,16.67
2023-04-08T15:23:10.675Z,16.92
2023-04-08T15:25:58.408Z,16.33
2023-04-08T15:28:46.253Z,16.38
2023-04-08T15:31:36.172Z,15.85
2023-04-08T15:34:23.995Z,15.57
2023-04-08T15:37:11.840Z,16.40
2023-04-08T15:39:59.327Z,17.00
2023-04-08T15:42:46.549Z,16.95
2023-04-08T15:45:33.575Z,15.90
2023-04-08T15:48:22.235Z,17.52
2023-04-08T15:51:12.664Z,17.55
2023-04-08T15:53:59.693Z,17.20
2023-04-08T15:56:47.919Z,17.48
2023-04-08T15:59:35.820Z,17.55
2023-04-08T16:02:23.523Z,17.58
2023-04-08T16:05:13.331Z,16.67
2023-04-08T16:08:00.346Z,16.65
2023-04-08T16:10:48.694Z,16.70
2023-04-08T16:13:39.193Z,16.45
2023-04-08T16:16:27.001Z,17.02
2023-04-08T16:19:14.763Z,17.53
2023-04-08T16:22:03.933Z,16.75
2023-04-08T16:24:53.211Z,17.02
2023-04-08T16:27:40.834Z,15.80
2023-04-08T16:30:28.360Z,16.38
2023-04-08T16:33:16.094Z,15.82
2023-04-08T16:36:04.513Z,16.63
2023-04-08T16:38:54.757Z,16.58
2023-04-08T16:41:42.809Z,15.77
2023-04-08T16:44:30.604Z,14.68
2023-04-08T16:47:17.839Z,14.63
2023-04-08T16:50:07.327Z,14.82
2023-04-08T16:52:54.328Z,14.37
2023-04-08T16:55:43.386Z,13.70
2023-04-08T16:58:31.216Z,13.95
2023-04-08T17:01:18.600Z,14.13
2023-04-08T17:04:06.534Z,13.73
2023-04-08T17:06:54.568Z,14.05
2023-04-08T17:09:42.708Z,14.48
2023-04-08T17:12:32.078Z,14.30
2023-04-08T17:15:19.723Z,14.17
2023-04-08T17:18:07.213Z,14.02
2023-04-08T17:20:54.536Z,13.87
2023-04-08T17:23:42.578Z,13.95
2023-04-08T17:26:30.529Z,13.57
2023-04-08T17:29:19.583Z,13.70
2023-04-08T17:32:07.682Z,13.23
2023-04-08T17:34:55.673Z,13.10
2023-04-08T17:37:43.193Z,14.15
2023-04-08T17:40:30.213Z,13.40
2023-04-08T17:43:19.587Z,13.27
2023-04-08T17:46:08.688Z,13.30
2023-04-08T17:48:56.689Z,13.02
2023-04-08T17:51:44.625Z,12.80
2023-04-08T17:54:34.592Z,11.48
2023-04-08T17:57:22.466Z,11.85
2023-04-08T18:00:11.422Z,12.23
2023-04-08T18:03:01.308Z,11.93
2023-04-08T18:05:48.883Z,10.55
2023-04-08T18:08:36.662Z,11.10
2023-04-08T18:11:26.649Z,12.05
2023-04-08T18:14:13.975Z,12.63
2023-04-08T18:17:02.464Z,11.60
2023-04-08T18:19:51.708Z,11.20
2023-04-08T18:22:39.115Z,11.38
2023-04-08T18:25:27.556Z,11.38
2023-04-08T18:28:15.610Z,11.30
2023-04-08T18:31:03.127Z,11.48
2023-04-08T18:33:51.044Z,11.07
2023-04-08T18:36:39.877Z,10.93
2023-04-08T18:39:27.371Z,11.35
2023-04-08T18:42:15.782Z,11.38
2023-04-08T18:45:03.354Z,12.73
2023-04-08T18:47:51.305Z,13.52
2023-04-08T18:50:40.268Z,15.68
2023-04-08T18:53:29.681Z,18.15
2023-04-08T18:56:17.354Z,17.75
2023-04-08T18:59:05.619Z,17.90
2023-04-08T19:01:53.567Z,18.38
2023-04-08T19:04:41.061Z,20.70
2023-04-08T19:07:28.698Z,19.13
2023-04-08T19:10:17.453Z,20.83
2023-04-08T19:13:05.084Z,22.98
2023-04-08T19:15:52.906Z,23.17
2023-04-08T19:18:40.694Z,22.88
2023-04-08T19:21:30.840Z,23.40
2023-04-08T19:24:18.203Z,23.75
2023-04-08T19:27:07.126Z,23.95
2023-04-08T19:29:55.089Z,22.27
2023-04-08T19:32:43.317Z,22.02
2023-04-08T19:35:31.390Z,20.98
2023-04-08T19:38:19.007Z,22.33
2023-04-08T19:41:06.655Z,22.58
2023-04-08T19:43:55.373Z,22.17
2023-04-08T19:46:43.309Z,22.20
2023-04-08T19:49:30.844Z,23.23
2023-04-08T19:52:18.468Z,25.30
2023-04-08T19:55:06.949Z,25.50
2023-04-08T19:57:55.588Z,24.42
2023-04-08T20:00:44.948Z,23.80
2023-04-08T20:03:32.728Z,24.60
2023-04-08T20:06:21.275Z,24.58
2023-04-08T20:09:09.073Z,23.58
2023-04-08T20:12:03.468Z,24.23
2023-04-08T20:14:50.855Z,24.42
2023-04-08T20:17:39.891Z,24.07
2023-04-08T20:20:29.549Z,25.33
2023-04-08T20:23:18.181Z,24.40
2023-04-08T20:26:06.436Z,24.15
2023-04-08T20:28:57.047Z,24.33
2023-04-08T20:31:46.188Z,25.42
2023-04-08T20:34:34.958Z,23.67
2023-04-08T20:37:22.085Z,24.75
2023-04-08T20:40:10.533Z,26.05
2023-04-08T20:42:58.258Z,25.05
2023-04-08T20:45:46.436Z,25.35
2023-04-08T20:48:34.658Z,25.90
2023-04-08T20:51:23.209Z,25.65
2023-04-08T20:54:10.854Z,25.50
2023-04-08T20:56:58.541Z,25.23
2023-04-08T20:59:46.195Z,23.55
2023-04-08T21:02:33.846Z,23.30
2023-04-08T21:05:22.307Z,22.45
2023-04-08T21:08:11.460Z,22.48
2023-04-08T21:10:59.085Z,23.05
2023-04-08T21:13:48.826Z,22.38
2023-04-08T21:16:36.659Z,20.98
2023-04-08T21:19:24.333Z,22.02
2023-04-08T21:22:11.759Z,21.08
2023-04-08T21:25:00.782Z,20.30
2023-04-08T21:27:48.048Z,19.80
2023-04-08T21:30:35.703Z,20.97
2023-04-08T21:33:23.582Z,20.88
2023-04-08T21:36:11.430Z,20.58
2023-04-08T21:38:58.978Z,20.73
2023-04-08T21:41:48.001Z,20.85
2023-04-08T21:44:35.480Z,19.30
2023-04-08T21:47:23.138Z,20.20
2023-04-08T21:50:11.355Z,19.80
2023-04-08T21:52:58.569Z,20.20
2023-04-08T21:55:46.302Z,19.30
2023-04-08T21:58:36.086Z,19.75
2023-04-08T22:01:23.488Z,19.07
2023-04-08T22:04:11.089Z,20.08
2023-04-08T22:06:58.982Z,19.92
2023-04-08T22:09:46.324Z,20.17
2023-04-08T22:12:34.185Z,20.13
2023-04-08T22:15:23.310Z,19.98
2023-04-08T22:18:11.258Z,21.53
2023-04-08T22:20:58.578Z,20.38
2023-04-08T22:23:46.144Z,20.73
2023-04-08T22:26:34.193Z,21.52
2023-04-08T22:29:22.001Z,22.30
2023-04-08T22:32:10.822Z,21.42
2023-04-08T22:34:58.112Z,21.03
2023-04-08T22:37:45.269Z,21.58
2023-04-08T22:40:32.724Z,21.08
2023-04-08T22:43:20.548Z,22.00
2023-04-08T22:46:08.328Z,21.60
2023-04-08T22:48:57.025Z,21.17
2023-04-08T22:51:44.789Z,22.17
2023-04-08T22:54:31.608Z,22.20
2023-04-08T22:57:18.928Z,22.40
2023-04-08T23:00:08.304Z,22.02
2023-04-08T23:02:57.931Z,22.17
2023-04-08T23:05:46.924Z,22.45
2023-04-08T23:08:34.052Z,21.77
2023-04-08T23:11:21.799Z,23.33
2023-04-08T23:14:09.082Z,22.67
2023-04-08T23:16:56.750Z,23.42
2023-04-08T23:19:44.061Z,23.63
2023-04-08T23:22:33.215Z,24.35
2023-04-08T23:25:20.963Z,24.10
2023-04-08T23:28:08.572Z,24.05
2023-04-08T23:30:55.339Z,25.63
2023-04-08T23:33:43.233Z,25.55
2023-04-08T23:36:30.149Z,24.08
2023-04-08T23:39:19.949Z,24.92
2023-04-08T23:42:07.830Z,25.77
2023-04-08T23:44:55.707Z,27.08
2023-04-08T23:47:43.785Z,26.42
2023-04-08T23:50:31.381Z,30.40
2023-04-08T23:53:18.408Z,29.30
2023-04-08T23:56:08.608Z,29.08
2023-04-08T23:58:55.702Z,29.13
